createdAt,value
2018-03-07T00:00:47.916Z,106.20
2018-03-07T00:03:16.291Z,92.28
2018-03-07T00:05:44.551Z,94.75
2018-03-07T00:08:12.979Z,93.93
2018-03-07T00:10:40.539Z,101.22
2018-03-07T00:13:08.078Z,99.97
2018-03-07T00:15:36.629Z,94.73
2018-03-07T00:18:04.174Z,82.77
2018-03-07T00:20:31.713Z,87.90
2018-03-07T00:23:00.194Z,94.53
2018-03-07T00:25:27.751Z,92.93
2018-03-07T00:27:55.946Z,101.90
2018-03-07T00:30:24.275Z,104.03
2018-03-07T00:32:51.832Z,98.07
2018-03-07T00:35:20.217Z,105.17
2018-03-07T00:37:48.510Z,107.63
2018-03-07T00:40:17.003Z,97.80
2018-03-07T00:42:45.258Z,99.03
2018-03-07T00:45:13.766Z,109.95
2018-03-07T00:47:42.211Z,106.95
2018-03-07T00:50:09.803Z,100.17
2018-03-07T00:52:37.392Z,106.85
2018-03-07T00:55:05.650Z,96.05
2018-03-07T00:57:34.098Z,95.70
2018-03-07T01:00:01.807Z,117.77
2018-03-07T01:02:30.298Z,115.75
2018-03-07T01:04:57.847Z,100.43
2018-03-07T01:07:25.430Z,115.47
2018-03-07T01:09:52.971Z,113.07
2018-03-07T01:12:21.483Z,112.53
2018-03-07T01:14:49.033Z,94.93
2018-03-07T01:17:16.620Z,105.00
2018-03-07T01:19:45.004Z,106.12
2018-03-07T01:22:13.343Z,108.95
2018-03-07T01:24:41.615Z,109.23
2018-03-07T01:27:09.945Z,118.90
2018-03-07T01:29:38.419Z,109.60
2018-03-07T01:32:06.704Z,109.00
2018-03-07T01:34:35.218Z,105.90
2018-03-07T01:37:02.773Z,108.57
2018-03-07T01:39:31.298Z,106.10
2018-03-07T01:41:58.891Z,116.88
2018-03-07T01:44:26.499Z,102.72
2018-03-07T01:46:54.109Z,112.90
2018-03-07T01:49:22.463Z,131.95
2018-03-07T01:52:01.757Z,112.50
2018-03-07T01:54:30.137Z,120.62
2018-03-07T01:56:57.959Z,108.78
2018-03-07T01:59:26.324Z,109.67
2018-03-07T02:01:53.882Z,114.72
2018-03-07T02:04:21.438Z,96.20
2018-03-07T02:06:48.990Z,117.68
2018-03-07T02:09:16.546Z,119.97
2018-03-07T02:11:44.089Z,123.87
2018-03-07T02:14:11.653Z,131.43
2018-03-07T02:16:39.209Z,122.97
2018-03-07T02:19:06.760Z,131.27
2018-03-07T02:21:34.306Z,120.53
2018-03-07T02:24:02.765Z,103.93
2018-03-07T02:26:30.307Z,101.83
2018-03-07T02:28:57.843Z,97.00
2018-03-07T02:31:25.394Z,115.80
2018-03-07T02:33:52.939Z,113.37
2018-03-07T02:36:32.499Z,109.72
2018-03-07T02:39:00.092Z,117.23
2018-03-07T02:41:28.494Z,121.73
2018-03-07T02:43:56.051Z,119.47
2018-03-07T02:46:23.611Z,109.93
2018-03-07T02:48:51.974Z,110.13
2018-03-07T02:51:20.342Z,106.00
2018-03-07T02:53:47.886Z,95.03
2018-03-07T02:56:15.444Z,110.60
2018-03-07T02:58:43.058Z,118.07
2018-03-07T03:01:10.618Z,102.40
2018-03-07T03:03:38.201Z,96.23
2018-03-07T03:06:05.750Z,99.53
2018-03-07T03:08:33.311Z,124.80
2018-03-07T03:11:01.779Z,126.67
2018-03-07T03:13:29.346Z,110.10
2018-03-07T03:15:56.895Z,116.73
2018-03-07T03:18:25.383Z,101.80
2018-03-07T03:20:52.942Z,105.75
2018-03-07T03:23:21.342Z,92.07
2018-03-07T03:25:48.889Z,104.57
2018-03-07T03:28:16.474Z,97.00
2018-03-07T03:30:44.073Z,109.50
2018-03-07T03:33:12.539Z,103.10
2018-03-07T03:35:40.984Z,107.53
2018-03-07T03:38:09.328Z,119.85
2018-03-07T03:40:36.903Z,126.20
2018-03-07T03:43:04.458Z,126.47
2018-03-07T03:45:32.014Z,115.47
2018-03-07T03:48:00.554Z,128.65
2018-03-07T03:50:28.115Z,133.12
2018-03-07T03:52:55.719Z,134.15
2018-03-07T03:55:24.170Z,141.47
2018-03-07T03:57:52.439Z,125.62
2018-03-07T04:00:19.986Z,150.00
2018-03-07T04:02:47.574Z,146.25
2018-03-07T04:05:15.171Z,143.30
2018-03-07T04:07:43.658Z,132.40
2018-03-07T04:10:11.250Z,150.23
2018-03-07T04:12:38.796Z,115.53
2018-03-07T04:15:07.293Z,128.73
2018-03-07T04:17:34.838Z,126.80
2018-03-07T04:20:03.135Z,127.73
2018-03-07T04:22:30.713Z,137.97
2018-03-07T04:24:58.273Z,139.00
2018-03-07T04:27:25.867Z,127.82
2018-03-07T04:29:53.426Z,135.35
2018-03-07T04:32:20.979Z,138.80
2018-03-07T04:34:48.526Z,134.07
2018-03-07T04:37:17.026Z,157.93
2018-03-07T04:39:44.621Z,147.93
2018-03-07T04:42:12.974Z,158.82
2018-03-07T04:44:40.522Z,167.73
2018-03-07T04:47:08.799Z,164.23
2018-03-07T04:49:37.178Z,138.82
2018-03-07T04:52:04.722Z,145.97
2018-03-07T04:54:32.346Z,142.53
2018-03-07T04:57:00.603Z,147.60
2018-03-07T04:59:29.034Z,166.37
2018-03-07T05:01:56.599Z,162.27
2018-03-07T05:04:25.091Z,175.55
2018-03-07T05:06:53.451Z,159.02
2018-03-07T05:09:21.047Z,174.82
2018-03-07T05:11:49.379Z,175.93
2018-03-07T05:14:17.663Z,184.63
2018-03-07T05:16:45.220Z,165.93
2018-03-07T05:19:12.782Z,169.10
2018-03-07T05:21:41.154Z,148.45
2018-03-07T05:24:08.714Z,167.90
2018-03-07T05:26:36.346Z,172.25
2018-03-07T05:29:03.906Z,158.63
2018-03-07T05:31:31.464Z,177.80
2018-03-07T05:33:59.083Z,162.35
2018-03-07T05:36:26.650Z,159.57
2018-03-07T05:38:55.123Z,159.77
2018-03-07T05:41:22.780Z,163.95
2018-03-07T05:43:51.169Z,162.05
2018-03-07T05:46:18.739Z,155.05
2018-03-07T05:48:47.434Z,145.62
2018-03-07T05:51:16.603Z,127.05
2018-03-07T05:53:45.351Z,139.50
2018-03-07T05:56:14.205Z,155.93
2018-03-07T05:58:41.815Z,153.20
2018-03-07T06:01:09.987Z,147.13
2018-03-07T06:03:37.569Z,143.65
2018-03-07T06:06:05.199Z,133.77
2018-03-07T06:08:32.760Z,161.27
2018-03-07T06:11:00.311Z,152.23
2018-03-07T06:13:27.876Z,153.68
2018-03-07T06:15:57.256Z,183.50
2018-03-07T06:18:24.851Z,169.95
2018-03-07T06:20:52.402Z,159.83
2018-03-07T06:23:20.003Z,175.27
2018-03-07T06:25:47.578Z,171.40
2018-03-07T06:28:15.142Z,173.32
2018-03-07T06:30:42.743Z,144.48
2018-03-07T06:33:10.292Z,145.70
2018-03-07T06:35:37.836Z,127.17
2018-03-07T06:38:05.389Z,146.57
2018-03-07T06:40:33.015Z,136.20
2018-03-07T06:43:00.569Z,131.83
2018-03-07T06:45:28.119Z,121.33
2018-03-07T06:47:55.665Z,128.17
2018-03-07T06:50:23.215Z,118.53
2018-03-07T06:52:50.759Z,128.13
2018-03-07T06:55:18.311Z,158.87
2018-03-07T06:57:46.774Z,160.40
2018-03-07T07:00:14.356Z,165.20
2018-03-07T07:02:42.738Z,181.57
2018-03-07T07:05:10.288Z,189.63
2018-03-07T07:07:37.843Z,144.77
2018-03-07T07:10:05.391Z,172.13
2018-03-07T07:12:32.938Z,150.70
2018-03-07T07:15:00.694Z,117.73
2018-03-07T07:17:28.248Z,135.97
2018-03-07T07:19:55.798Z,146.70
2018-03-07T07:22:23.347Z,142.20
2018-03-07T07:24:50.898Z,131.50
2018-03-07T07:27:18.447Z,147.40
2018-03-07T07:29:46.007Z,136.47
2018-03-07T07:32:13.557Z,139.83
2018-03-07T07:34:41.130Z,139.63
2018-03-07T07:37:09.378Z,133.87
2018-03-07T07:39:36.923Z,129.77
2018-03-07T07:42:04.479Z,131.60
2018-03-07T07:44:32.034Z,144.37
2018-03-07T07:46:59.586Z,134.63
2018-03-07T07:49:27.138Z,135.23
2018-03-07T07:51:54.687Z,136.17
2018-03-07T07:54:22.235Z,140.67
2018-03-07T07:56:49.782Z,139.17
2018-03-07T07:59:17.331Z,132.87
2018-03-07T08:01:44.885Z,116.67
2018-03-07T08:04:12.440Z,133.27
2018-03-07T08:06:39.991Z,138.30
2018-03-07T08:09:07.545Z,122.97
2018-03-07T08:11:35.092Z,117.73
2018-03-07T08:14:02.643Z,120.03
2018-03-07T08:16:30.186Z,149.03
2018-03-07T08:18:57.735Z,147.43
2018-03-07T08:21:25.290Z,143.53
2018-03-07T08:23:52.839Z,131.17
2018-03-07T08:26:20.388Z,125.43
2018-03-07T08:28:47.939Z,137.20
2018-03-07T08:31:15.732Z,140.37
2018-03-07T08:33:43.302Z,149.67
2018-03-07T08:36:10.851Z,144.07
2018-03-07T08:38:38.402Z,140.40
2018-03-07T08:41:05.950Z,151.47
2018-03-07T08:43:33.496Z,140.73
2018-03-07T08:46:01.081Z,142.70
2018-03-07T08:48:28.626Z,122.13
2018-03-07T08:50:56.175Z,122.93
2018-03-07T08:53:23.728Z,123.63
2018-03-07T08:55:51.287Z,117.17
2018-03-07T08:58:18.840Z,121.70
2018-03-07T09:00:46.394Z,134.23
2018-03-07T09:03:13.966Z,122.47
2018-03-07T09:05:41.522Z,120.70
2018-03-07T09:08:09.085Z,120.50
2018-03-07T09:10:36.634Z,128.30
2018-03-07T09:13:04.188Z,120.80
2018-03-07T09:15:31.771Z,125.27
2018-03-07T09:17:59.382Z,121.83
2018-03-07T09:20:26.933Z,126.43
2018-03-07T09:22:54.481Z,111.67
2018-03-07T09:25:22.053Z,123.15
2018-03-07T09:27:50.439Z,115.93
2018-03-07T09:30:17.992Z,106.80
2018-03-07T09:32:45.538Z,122.87
2018-03-07T09:35:13.083Z,116.87
2018-03-07T09:37:40.634Z,128.80
2018-03-07T09:40:08.185Z,111.97
2018-03-07T09:42:36.626Z,117.30
2018-03-07T09:45:04.176Z,114.17
2018-03-07T09:47:31.738Z,106.03
2018-03-07T09:49:59.285Z,113.83
2018-03-07T09:52:26.830Z,103.53
2018-03-07T09:54:54.401Z,100.33
2018-03-07T09:57:21.962Z,106.40
2018-03-07T09:59:49.506Z,96.67
2018-03-07T10:02:17.051Z,98.17
2018-03-07T10:04:45.537Z,106.90
2018-03-07T10:07:13.083Z,89.63
2018-03-07T10:09:40.675Z,86.63
2018-03-07T10:12:08.223Z,84.03
2018-03-07T10:14:35.821Z,86.43
2018-03-07T10:17:03.346Z,83.33
2018-03-07T10:19:30.893Z,81.10
2018-03-07T10:21:58.436Z,83.70
2018-03-07T10:24:25.982Z,79.33
2018-03-07T10:26:53.530Z,71.73
2018-03-07T10:29:21.075Z,68.27
2018-03-07T10:31:48.622Z,66.47
2018-03-07T10:34:16.984Z,68.17
2018-03-07T10:36:45.390Z,67.10
2018-03-07T10:39:12.946Z,68.33
2018-03-07T10:41:40.495Z,66.90
2018-03-07T10:44:08.830Z,55.10
2018-03-07T10:46:37.209Z,55.03
2018-03-07T10:49:05.530Z,60.93
2018-03-07T10:51:33.770Z,54.13
2018-03-07T10:54:01.362Z,52.47
2018-03-07T10:56:28.914Z,53.53
2018-03-07T10:58:56.463Z,55.93
2018-03-07T11:01:24.059Z,47.00
2018-03-07T11:03:51.634Z,54.00
2018-03-07T11:06:19.175Z,51.20
2018-03-07T11:08:46.722Z,47.10
2018-03-07T11:11:14.272Z,53.07
2018-03-07T11:13:41.819Z,51.40
2018-03-07T11:16:09.362Z,51.00
2018-03-07T11:18:37.825Z,54.57
2018-03-07T11:21:05.374Z,47.93
2018-03-07T11:23:32.922Z,54.50
2018-03-07T11:26:00.466Z,50.40
2018-03-07T11:28:28.013Z,50.70
2018-03-07T11:30:56.454Z,48.13
2018-03-07T11:33:23.999Z,45.40
2018-03-07T11:35:51.549Z,55.87
2018-03-07T11:38:19.090Z,51.57
2018-03-07T11:40:46.632Z,53.40
2018-03-07T11:43:14.176Z,50.50
2018-03-07T11:45:41.721Z,54.17
2018-03-07T11:48:09.275Z,43.67
2018-03-07T11:50:36.819Z,48.37
2018-03-07T11:53:04.371Z,50.67
2018-03-07T11:55:31.915Z,55.13
2018-03-07T11:57:59.491Z,54.60
2018-03-07T12:00:27.034Z,47.87
2018-03-07T12:02:54.578Z,50.33
2018-03-07T12:05:22.127Z,59.03
2018-03-07T12:07:49.683Z,56.37
2018-03-07T12:10:17.494Z,54.10
2018-03-07T12:12:45.035Z,50.53
2018-03-07T12:15:12.591Z,52.80
2018-03-07T12:17:40.196Z,49.10
2018-03-07T12:20:07.719Z,49.47
2018-03-07T12:22:35.269Z,53.70
2018-03-07T12:25:02.828Z,52.90
2018-03-07T12:27:30.382Z,45.17
2018-03-07T12:29:57.928Z,58.70
2018-03-07T12:32:25.501Z,55.27
2018-03-07T12:34:53.099Z,59.17
2018-03-07T12:37:21.573Z,50.03
2018-03-07T12:39:49.123Z,51.43
2018-03-07T12:42:16.669Z,56.40
2018-03-07T12:44:44.214Z,51.07
2018-03-07T12:47:12.007Z,57.47
2018-03-07T12:49:39.557Z,52.23
2018-03-07T12:52:07.099Z,53.30
2018-03-07T12:54:34.655Z,57.20
2018-03-07T12:57:02.194Z,58.07
2018-03-07T12:59:29.742Z,47.43
2018-03-07T13:01:57.391Z,54.03
2018-03-07T13:04:24.936Z,53.80
2018-03-07T13:06:52.488Z,53.07
2018-03-07T13:09:20.844Z,49.00
2018-03-07T13:11:49.294Z,50.83
2018-03-07T13:14:16.896Z,55.07
2018-03-07T13:16:44.438Z,49.53
2018-03-07T13:19:12.022Z,49.37
2018-03-07T13:21:39.567Z,48.17
2018-03-07T13:24:07.118Z,52.50
2018-03-07T13:26:34.659Z,51.90
2018-03-07T13:29:02.242Z,55.10
2018-03-07T13:31:29.790Z,52.40
2018-03-07T13:33:59.239Z,62.30
2018-03-07T13:36:26.781Z,60.97
2018-03-07T13:38:54.567Z,61.73
2018-03-07T13:41:22.143Z,55.43
2018-03-07T13:43:50.687Z,53.97
2018-03-07T13:46:18.271Z,57.33
2018-03-07T13:48:45.853Z,54.60
2018-03-07T13:51:13.403Z,54.10
2018-03-07T13:53:41.782Z,47.07
2018-03-07T13:56:10.242Z,55.37
2018-03-07T13:58:37.787Z,48.90
2018-03-07T14:01:06.028Z,52.93
2018-03-07T14:03:33.581Z,52.17
2018-03-07T14:06:01.127Z,50.17
2018-03-07T14:08:28.671Z,47.97
2018-03-07T14:10:56.255Z,49.60
2018-03-07T14:13:23.848Z,50.30
2018-03-07T14:15:51.400Z,50.03
2018-03-07T14:18:18.946Z,56.17
2018-03-07T14:20:46.494Z,48.93
2018-03-07T14:23:14.086Z,46.97
2018-03-07T14:25:41.640Z,45.27
2018-03-07T14:28:09.221Z,53.57
2018-03-07T14:30:37.562Z,44.23
2018-03-07T14:33:05.159Z,43.00
2018-03-07T14:35:32.708Z,42.60
2018-03-07T14:38:00.247Z,42.57
2018-03-07T14:40:27.791Z,44.07
2018-03-07T14:42:55.339Z,45.87
2018-03-07T14:45:22.946Z,51.50
2018-03-07T14:47:50.488Z,46.03
2018-03-07T14:50:18.032Z,41.63
2018-03-07T14:52:46.499Z,48.00
2018-03-07T14:55:14.846Z,45.47
2018-03-07T14:57:43.168Z,47.27
2018-03-07T15:00:10.716Z,39.67
2018-03-07T15:02:38.309Z,44.70
2018-03-07T15:05:05.863Z,46.97
2018-03-07T15:07:33.416Z,43.57
2018-03-07T15:10:00.961Z,43.43
2018-03-07T15:12:28.512Z,44.30
2018-03-07T15:14:56.759Z,46.93
2018-03-07T15:17:24.299Z,44.10
2018-03-07T15:19:51.853Z,47.20
2018-03-07T15:22:19.403Z,48.83
2018-03-07T15:24:46.945Z,47.97
2018-03-07T15:27:14.487Z,45.80
2018-03-07T15:29:42.031Z,42.10
2018-03-07T15:32:10.304Z,46.03
2018-03-07T15:34:37.861Z,42.23
2018-03-07T15:37:05.398Z,46.47
2018-03-07T15:39:32.985Z,46.90
2018-03-07T15:42:00.522Z,51.67
2018-03-07T15:44:28.066Z,48.43
2018-03-07T15:46:55.614Z,50.00
2018-03-07T15:49:23.239Z,42.37
2018-03-07T15:51:50.830Z,47.83
2018-03-07T15:54:18.354Z,46.13
2018-03-07T15:56:46.802Z,49.47
2018-03-07T15:59:15.166Z,47.60
2018-03-07T16:01:42.766Z,49.53
2018-03-07T16:04:11.106Z,62.33
2018-03-07T16:06:38.655Z,46.87
2018-03-07T16:09:06.200Z,53.60
2018-03-07T16:11:33.749Z,59.03
2018-03-07T16:14:01.310Z,53.07
2018-03-07T16:16:28.859Z,48.17
2018-03-07T16:18:56.412Z,49.40
2018-03-07T16:21:23.990Z,56.63
2018-03-07T16:23:51.534Z,54.87
2018-03-07T16:26:19.119Z,58.20
2018-03-07T16:28:46.684Z,57.53
2018-03-07T16:31:14.271Z,63.70
2018-03-07T16:33:42.758Z,59.70
2018-03-07T16:36:10.352Z,60.63
2018-03-07T16:38:37.893Z,66.53
2018-03-07T16:41:06.361Z,64.17
2018-03-07T16:43:33.951Z,63.93
2018-03-07T16:46:01.506Z,65.03
2018-03-07T16:48:29.054Z,66.40
2018-03-07T16:50:56.611Z,63.90
2018-03-07T16:53:24.164Z,59.90
2018-03-07T16:55:51.716Z,66.47
2018-03-07T16:58:19.271Z,66.30
2018-03-07T17:00:47.562Z,69.43
2018-03-07T17:03:15.118Z,66.17
2018-03-07T17:05:42.671Z,78.13
2018-03-07T17:08:10.394Z,65.30
2018-03-07T17:10:38.029Z,68.60
2018-03-07T17:13:06.614Z,75.60
2018-03-07T17:15:35.272Z,79.13
2018-03-07T17:18:02.904Z,75.73
2018-03-07T17:20:30.607Z,75.72
2018-03-07T17:22:58.227Z,70.57
2018-03-07T17:25:25.843Z,70.27
2018-03-07T17:27:53.937Z,68.80
2018-03-07T17:30:21.554Z,94.83
2018-03-07T17:33:00.808Z,79.33
2018-03-07T17:35:28.391Z,92.00
2018-03-07T17:37:57.064Z,80.03
2018-03-07T17:40:24.698Z,73.23
2018-03-07T17:42:52.384Z,76.27
2018-03-07T17:45:20.172Z,100.93
2018-03-07T17:47:47.849Z,76.73
2018-03-07T17:50:15.551Z,86.40
2018-03-07T17:52:43.399Z,99.87
2018-03-07T17:55:11.015Z,105.63
2018-03-07T17:57:38.688Z,93.67
2018-03-07T18:00:06.384Z,95.40
2018-03-07T18:02:34.058Z,86.90
2018-03-07T18:05:01.724Z,83.37
2018-03-07T18:07:29.428Z,85.37
2018-03-07T18:09:57.039Z,86.43
2018-03-07T18:12:24.727Z,92.23
2018-03-07T18:14:52.419Z,88.57
2018-03-07T18:17:20.131Z,100.00
2018-03-07T18:19:47.917Z,94.40
2018-03-07T18:22:15.547Z,95.80
2018-03-07T18:24:43.199Z,100.07
2018-03-07T18:27:11.799Z,94.63
2018-03-07T18:29:39.444Z,102.50
2018-03-07T18:32:07.125Z,91.97
2018-03-07T18:34:35.693Z,88.73
2018-03-07T18:37:03.334Z,103.83
2018-03-07T18:39:31.987Z,98.30
2018-03-07T18:41:59.614Z,95.50
2018-03-07T18:44:27.257Z,88.87
2018-03-07T18:46:54.939Z,99.83
2018-03-07T18:49:22.523Z,93.17
2018-03-07T18:51:50.212Z,105.83
2018-03-07T18:54:17.989Z,99.57
2018-03-07T18:56:45.866Z,97.77
2018-03-07T18:59:14.890Z,93.13
2018-03-07T19:01:42.702Z,105.07
2018-03-07T19:04:11.291Z,98.30
2018-03-07T19:06:38.995Z,100.67
2018-03-07T19:09:06.647Z,95.40
2018-03-07T19:11:36.668Z,98.00
2018-03-07T19:14:04.266Z,92.67
2018-03-07T19:16:31.927Z,93.63
2018-03-07T19:18:59.472Z,86.30
2018-03-07T19:21:28.679Z,89.40
2018-03-07T19:23:56.294Z,84.13
2018-03-07T19:26:23.893Z,93.37
2018-03-07T19:28:51.496Z,89.80
2018-03-07T19:31:20.527Z,98.77
2018-03-07T19:33:48.121Z,96.57
2018-03-07T19:36:16.440Z,100.93
2018-03-07T19:38:45.311Z,104.07
2018-03-07T19:41:12.920Z,104.33
2018-03-07T19:43:41.919Z,108.97
2018-03-07T19:46:13.757Z,99.67
2018-03-07T19:48:42.722Z,100.23
2018-03-07T19:51:11.767Z,103.83
2018-03-07T19:53:40.172Z,112.80
2018-03-07T19:56:09.026Z,102.23
2018-03-07T19:58:38.171Z,116.70
2018-03-07T20:01:06.446Z,106.70
2018-03-07T20:03:35.574Z,99.57
2018-03-07T20:06:04.214Z,104.33
2018-03-07T20:08:33.910Z,104.67
2018-03-07T20:11:02.284Z,114.03
2018-03-07T20:13:29.883Z,97.00
2018-03-07T20:15:57.481Z,105.73
2018-03-07T20:18:26.628Z,102.57
2018-03-07T20:20:55.116Z,99.73
2018-03-07T20:23:23.534Z,101.23
2018-03-07T20:25:53.681Z,92.00
2018-03-07T20:28:22.959Z,107.53
2018-03-07T20:30:52.289Z,107.53
2018-03-07T20:33:21.495Z,101.87
2018-03-07T20:35:50.652Z,105.70
2018-03-07T20:38:21.416Z,102.20
2018-03-07T20:40:49.091Z,119.20
2018-03-07T20:43:16.691Z,118.80
2018-03-07T20:45:45.089Z,118.73
2018-03-07T20:48:12.742Z,113.13
2018-03-07T20:50:43.482Z,116.73
2018-03-07T20:53:11.851Z,113.60
2018-03-07T20:55:40.259Z,115.77
2018-03-07T20:58:08.909Z,122.50
2018-03-07T21:00:36.569Z,126.37
2018-03-07T21:03:04.329Z,126.70
2018-03-07T21:05:31.964Z,128.13
2018-03-07T21:07:59.652Z,125.50
2018-03-07T21:10:28.242Z,116.23
2018-03-07T21:12:56.922Z,105.50
2018-03-07T21:15:24.638Z,137.13
2018-03-07T21:17:52.322Z,137.53
2018-03-07T21:20:19.927Z,143.73
2018-03-07T21:22:47.837Z,142.23
2018-03-07T21:25:16.362Z,132.33
2018-03-07T21:27:45.431Z,135.97
2018-03-07T21:30:13.101Z,114.33
2018-03-07T21:32:40.869Z,106.90
2018-03-07T21:35:08.474Z,126.90
2018-03-07T21:37:54.271Z,130.20
2018-03-07T21:40:24.219Z,141.43
2018-03-07T21:42:52.428Z,131.17
2018-03-07T21:45:23.354Z,130.27
2018-03-07T21:47:51.133Z,133.63
2018-03-07T21:50:18.997Z,124.07
2018-03-07T21:52:47.784Z,131.10
2018-03-07T21:55:15.459Z,143.60
2018-03-07T21:57:43.629Z,131.73
2018-03-07T22:00:11.292Z,127.70
2018-03-07T22:02:38.981Z,127.80
2018-03-07T22:05:06.576Z,115.07
2018-03-07T22:07:34.178Z,142.00
2018-03-07T22:10:01.843Z,122.60
2018-03-07T22:12:29.707Z,141.90
2018-03-07T22:14:57.580Z,146.90
2018-03-07T22:17:25.266Z,164.33
2018-03-07T22:19:53.981Z,155.53
2018-03-07T22:22:22.650Z,143.67
2018-03-07T22:24:50.298Z,152.53
2018-03-07T22:27:17.922Z,164.50
2018-03-07T22:29:45.608Z,151.43
2018-03-07T22:32:13.213Z,172.50
2018-03-07T22:34:40.902Z,164.63
2018-03-07T22:37:08.588Z,146.47
2018-03-07T22:39:36.274Z,129.40
2018-03-07T22:42:03.875Z,168.47
2018-03-07T22:44:31.477Z,157.43
2018-03-07T22:46:59.075Z,198.83
2018-03-07T22:49:26.678Z,153.47
2018-03-07T22:51:54.286Z,172.83
2018-03-07T22:54:22.000Z,165.07
2018-03-07T22:56:49.663Z,171.37
2018-03-07T22:59:17.351Z,126.93
2018-03-07T23:01:44.946Z,145.03
2018-03-07T23:04:12.548Z,143.93
2018-03-07T23:06:40.148Z,168.93
2018-03-07T23:09:07.747Z,142.37
2018-03-07T23:11:35.354Z,158.63
2018-03-07T23:14:03.757Z,184.03
2018-03-07T23:16:31.355Z,179.12
2018-03-07T23:18:59.062Z,203.85
2018-03-07T23:21:26.739Z,214.07
2018-03-07T23:23:54.338Z,182.88
2018-03-07T23:26:21.942Z,166.07
2018-03-07T23:28:49.536Z,168.17
2018-03-07T23:31:18.586Z,219.97
2018-03-07T23:36:20.887Z,228.57
2018-03-07T23:38:49.578Z,210.53
2018-03-07T23:41:17.255Z,205.98
2018-03-07T23:43:44.855Z,166.30
2018-03-07T23:46:13.284Z,200.05
2018-03-07T23:48:41.050Z,183.17
2018-03-07T23:51:08.917Z,202.53
2018-03-07T23:53:36.515Z,192.83
2018-03-07T23:56:04.121Z,194.90
2018-03-07T23:58:31.715Z,180.47
